Terminal Aerodrome Forecast
Issued by NWS Knoxville/Tri Cities, TN

Home | Current Version | Previous Version | Text Only | Print | Product List | Glossary On
Versions: 1 2 3 4 5 6 7 8 9 10 11 12 13 14 15 16 17 18 19 20 21 22 23 24 25 26 27 28 29 30 31 32 33 34
000
FTUS44 KMRX 231228 AAA
TAFCHA
TAF AMD
KCHA 231228Z 2312/2412 00000KT 5SM BR BKN005
     FM231300 00000KT P6SM SCT008 BKN080
     FM231600 23005KT P6SM VCTS SCT035CB BKN150
     FM240200 VRB03KT P6SM FEW040 SCT150 BKN250
     FM240600 00000KT P6SM OVC250=

USA.gov is the U.S. government's official web portal to all federal, state and local government web resources and services.